Terminal Aerodrome Forecast
Issued by NWS

Home | Current Version | Previous Version | Graphics & Text | Print | Product List | Glossary Off
Versions: 1 2 3 4 5 6 7 8 9 10 11 12 13 14 15 16 17 18 19 20 21 22 23 24 25 26

390
FTUS43 KMPX 252327
TAFAXN
TAF
KAXN 252327Z 2600/2624 01008KT 6SM -SHRA BR OVC015
     FM260600 01007KT 3SM SHRA BR OVC010
     FM261200 33007KT P6SM OVC005
     FM261600 32009KT P6SM OVC008
     FM261800 30012G18KT P6SM OVC015
     FM262100 30012G19KT P6SM BKN025=

USA.gov is the U.S. government's official web portal to all federal, state and local government web resources and services.